Time;durP1;ratioP1;P1;durP2;ratioP2;P2;SDS_P1;SDS_P2;PMS_P1;PMS_P2;Temp;Humidity;BMP_temperature;BMP_pressure;BME280_temperature;BME280_humidity;BME280_pressure;Samples;Min_cycle;Max_cycle;Signal;HPM_P1;HPM_P2
2022/06/07 00:00:06;;;;;;;3.92;2.78;;;;;;;;;;4206062;34;20110;-56
2022/06/07 00:02:33;;;;;;;3.97;3.00;;;;;;;;;;4218871;34;20185;-58
2022/06/07 00:33:26;;;;;;;4.12;3.00;;;;;;;;;;4604102;28;20257;-60
2022/06/07 00:35:52;;;;;;;4.12;3.20;;;;;;;;;;4201794;34;20203;-61
2022/06/07 00:38:18;;;;;;;3.67;3.17;;;;;;;;;;4206940;34;20130;-61
2022/06/07 00:40:44;;;;;;;3.35;2.95;;;;;;;;;;4204630;34;20119;-61
2022/06/07 00:43:10;;;;;;;6.62;3.25;;;;;;;;;;4211647;34;20118;-61
2022/06/07 00:45:36;;;;;;;4.68;3.08;;;;;;;;;;4218404;34;20108;-66
2022/06/07 00:48:06;;;;;;;5.00;3.03;;;;;;;;;;4218411;34;20117;-66
2022/06/07 00:50:38;;;;;;;3.62;3.10;;;;;;;;;;4218758;34;20153;-62
2022/06/07 00:53:05;;;;;;;3.70;3.33;;;;;;;;;;4218729;34;20114;-62
2022/06/07 00:55:31;;;;;;;5.90;3.28;;;;;;;;;;4218425;34;20102;-62
2022/06/07 00:57:57;;;;;;;3.97;3.30;;;;;;;;;;4205723;34;20133;-62
2022/06/07 01:00:24;;;;;;;3.97;2.80;;;;;;;;;;4218362;34;20132;-62
2022/06/07 01:02:51;;;;;;;3.58;3.28;;;;;;;;;;4218458;34;20114;-62
2022/06/07 01:05:17;;;;;;;4.03;3.20;;;;;;;;;;4218199;34;20624;-62
2022/06/07 01:10:46;;;;;;;4.15;3.08;;;;;;;;;;4218086;34;20538;-62
2022/06/07 01:13:15;;;;;;;5.07;3.53;;;;;;;;;;4218254;34;20458;-62
2022/06/07 01:15:45;;;;;;;4.15;3.70;;;;;;;;;;4218269;34;20508;-67
2022/06/07 01:18:12;;;;;;;5.40;3.37;;;;;;;;;;4205466;34;20124;-67
2022/06/07 01:20:39;;;;;;;3.03;2.72;;;;;;;;;;4218390;34;20113;-67
2022/06/07 01:23:05;;;;;;;4.20;2.90;;;;;;;;;;4217924;34;20204;-67
2022/06/07 01:25:31;;;;;;;3.62;3.20;;;;;;;;;;4218127;34;20495;-67
2022/06/07 01:27:57;;;;;;;4.78;3.05;;;;;;;;;;4218440;34;20094;-69
2022/06/07 01:30:25;;;;;;;4.45;2.85;;;;;;;;;;4218301;34;20461;-67
2022/06/07 01:32:52;;;;;;;3.30;2.92;;;;;;;;;;4218009;34;20102;-67
2022/06/07 01:35:18;;;;;;;4.00;2.90;;;;;;;;;;4218063;34;20502;-67
2022/06/07 01:37:44;;;;;;;5.37;3.08;;;;;;;;;;4218018;34;20525;-67
2022/06/07 01:42:55;;;;;;;4.43;3.10;;;;;;;;;;4217749;34;20133;-67
2022/06/07 01:45:21;;;;;;;5.10;3.05;;;;;;;;;;4217797;34;20627;-67
2022/06/07 01:47:47;;;;;;;3.75;3.20;;;;;;;;;;4217845;34;20120;-67
2022/06/07 01:50:14;;;;;;;3.92;3.37;;;;;;;;;;4218111;34;20109;-67
2022/06/07 01:52:40;;;;;;;6.97;3.20;;;;;;;;;;4217856;34;20513;-67
2022/06/07 01:55:07;;;;;;;6.85;3.58;;;;;;;;;;4204717;34;20100;-66
2022/06/07 01:57:33;;;;;;;6.50;2.95;;;;;;;;;;4218053;34;20132;-67
2022/06/07 02:00:00;;;;;;;3.47;2.87;;;;;;;;;;4217837;34;20115;-67
2022/06/07 02:02:27;;;;;;;3.05;2.72;;;;;;;;;;4218049;34;20208;-67
2022/06/07 02:04:54;;;;;;;5.15;3.83;;;;;;;;;;4217737;34;20212;-67
2022/06/07 02:07:21;;;;;;;4.85;3.10;;;;;;;;;;4204940;34;20165;-67
2022/06/07 02:09:47;;;;;;;4.70;3.25;;;;;;;;;;4217862;34;20125;-67
2022/06/07 02:12:13;;;;;;;4.72;2.90;;;;;;;;;;4217810;34;20109;-67
2022/06/07 02:14:39;;;;;;;3.15;2.87;;;;;;;;;;4217637;34;20541;-66
2022/06/07 02:17:07;;;;;;;5.20;2.90;;;;;;;;;;4217911;34;20121;-66
2022/06/07 02:19:33;;;;;;;3.40;3.03;;;;;;;;;;4217414;34;20090;-66
2022/06/07 02:21:59;;;;;;;3.70;3.03;;;;;;;;;;4217537;34;20197;-66
2022/06/07 02:24:25;;;;;;;3.50;2.97;;;;;;;;;;4217589;34;20141;-66
2022/06/07 02:26:54;;;;;;;3.40;3.08;;;;;;;;;;4217510;34;20121;-66
2022/06/07 02:29:45;;;;;;;7.12;2.85;;;;;;;;;;4217220;34;20106;-67
2022/06/07 02:32:15;;;;;;;3.40;3.00;;;;;;;;;;4204771;34;20118;-67
2022/06/07 02:34:42;;;;;;;5.60;3.42;;;;;;;;;;4217638;34;20114;-67
2022/06/07 02:37:09;;;;;;;3.58;3.10;;;;;;;;;;4204511;34;20133;-67
2022/06/07 02:39:36;;;;;;;4.85;3.40;;;;;;;;;;4204421;34;20145;-67
2022/06/07 02:42:03;;;;;;;3.60;3.30;;;;;;;;;;4192778;34;20121;-67
2022/06/07 02:44:29;;;;;;;3.78;3.10;;;;;;;;;;4217783;34;20643;-67
2022/06/07 02:46:55;;;;;;;3.30;3.00;;;;;;;;;;4219714;34;20125;-66
2022/06/07 02:49:22;;;;;;;4.57;3.00;;;;;;;;;;4219569;34;20105;-66
2022/06/07 02:51:48;;;;;;;5.12;3.15;;;;;;;;;;4219599;34;20138;-66
2022/06/07 02:54:14;;;;;;;3.67;2.20;;;;;;;;;;4219524;34;20105;-66
2022/06/07 02:56:40;;;;;;;3.55;2.50;;;;;;;;;;4206794;34;20225;-66
2022/06/07 02:59:06;;;;;;;3.80;2.80;;;;;;;;;;4219214;34;20559;-66
2022/06/07 03:01:31;;;;;;;4.82;2.87;;;;;;;;;;4219593;34;20101;-66
2022/06/07 03:03:58;;;;;;;3.05;2.40;;;;;;;;;;4219210;34;20120;-66
2022/06/07 03:06:24;;;;;;;3.87;2.60;;;;;;;;;;4219329;34;20124;-66
2022/06/07 03:08:51;;;;;;;4.32;2.60;;;;;;;;;;4206277;34;20109;-66
2022/06/07 03:11:17;;;;;;;8.30;3.10;;;;;;;;;;4219528;34;20102;-67
2022/06/07 03:13:43;;;;;;;4.05;2.70;;;;;;;;;;4219507;34;20113;-67
2022/06/07 03:16:09;;;;;;;3.30;2.62;;;;;;;;;;4219158;34;20105;-67
2022/06/07 03:18:34;;;;;;;5.10;2.62;;;;;;;;;;4219143;34;20194;-67
2022/06/07 03:21:00;;;;;;;3.33;2.65;;;;;;;;;;4219163;34;20125;-67
2022/06/07 03:23:26;;;;;;;3.47;2.80;;;;;;;;;;4219242;34;20120;-67
2022/06/07 03:26:08;;;;;;;3.70;2.72;;;;;;;;;;4219306;34;20122;-72
2022/06/07 03:28:35;;;;;;;7.45;3.97;;;;;;;;;;4219514;34;20190;-73
2022/06/07 03:31:05;;;;;;;4.40;2.80;;;;;;;;;;4206049;34;20117;-73
2022/06/07 03:33:34;;;;;;;4.60;2.50;;;;;;;;;;4205889;34;20109;-72
2022/06/07 03:36:11;;;;;;;2.72;2.40;;;;;;;;;;4219050;34;20588;-71
2022/06/07 03:38:37;;;;;;;5.20;2.78;;;;;;;;;;4194578;34;20533;-72
2022/06/07 03:41:03;;;;;;;2.78;2.35;;;;;;;;;;4218873;34;20126;-72
2022/06/07 03:43:29;;;;;;;2.50;2.30;;;;;;;;;;4194434;34;20128;-72
2022/06/07 03:45:55;;;;;;;2.65;2.25;;;;;;;;;;4219291;34;20109;-70
2022/06/07 03:48:21;;;;;;;3.12;2.60;;;;;;;;;;4206140;34;20145;-73
2022/06/07 03:50:48;;;;;;;3.67;2.75;;;;;;;;;;4205792;34;20086;-75
2022/06/07 03:53:14;;;;;;;4.53;2.90;;;;;;;;;;4218892;34;20133;-71
2022/06/07 03:55:47;;;;;;;3.72;2.55;;;;;;;;;;4218300;34;20117;-72
2022/06/07 03:58:14;;;;;;;2.97;2.25;;;;;;;;;;4206345;34;20121;-74
2022/06/07 04:00:40;;;;;;;2.95;2.50;;;;;;;;;;4219111;34;20169;-73
2022/06/07 04:03:06;;;;;;;2.97;2.33;;;;;;;;;;4194312;34;20516;-73
2022/06/07 04:05:32;;;;;;;5.55;2.65;;;;;;;;;;4219114;34;20106;-72
2022/06/07 04:08:12;;;;;;;3.37;2.65;;;;;;;;;;4206026;34;20117;-72
2022/06/07 04:11:00;;;;;;;2.90;2.10;;;;;;;;;;4219061;34;20118;-72
2022/06/07 04:13:28;;;;;;;3.78;2.42;;;;;;;;;;4205643;34;20121;-72
2022/06/07 04:15:54;;;;;;;4.72;2.37;;;;;;;;;;4206113;34;20185;-71
2022/06/07 04:18:20;;;;;;;4.00;2.03;;;;;;;;;;4218958;34;20512;-71
2022/06/07 04:20:47;;;;;;;7.32;2.50;;;;;;;;;;4218767;34;20112;-71
2022/06/07 04:23:18;;;;;;;3.33;2.75;;;;;;;;;;4194138;34;20105;-72
2022/06/07 04:25:44;;;;;;;2.58;2.37;;;;;;;;;;4218655;34;20105;-72
2022/06/07 04:28:11;;;;;;;3.40;2.70;;;;;;;;;;4205755;34;20113;-73
2022/06/07 04:30:38;;;;;;;3.00;2.50;;;;;;;;;;4205849;34;20128;-72
2022/06/07 04:33:04;;;;;;;3.50;2.80;;;;;;;;;;4218599;34;20505;-73
2022/06/07 04:35:30;;;;;;;4.45;2.85;;;;;;;;;;4218824;34;20117;-71
2022/06/07 04:37:56;;;;;;;6.03;2.42;;;;;;;;;;4218599;34;20125;-69
2022/06/07 04:40:22;;;;;;;3.75;1.85;;;;;;;;;;4218491;34;20097;-77
2022/06/07 04:42:48;;;;;;;2.87;2.28;;;;;;;;;;4218548;34;20121;-71
2022/06/07 04:45:15;;;;;;;3.85;2.40;;;;;;;;;;4205771;34;20502;-69
2022/06/07 04:47:42;;;;;;;3.75;2.50;;;;;;;;;;4194178;34;20478;-70
2022/06/07 04:50:11;;;;;;;2.97;2.33;;;;;;;;;;4218429;34;20179;-70
2022/06/07 04:52:37;;;;;;;2.70;2.30;;;;;;;;;;4218487;34;20112;-71
2022/06/07 04:55:04;;;;;;;3.05;2.75;;;;;;;;;;4218677;34;20197;-72
2022/06/07 04:57:30;;;;;;;3.17;2.50;;;;;;;;;;4194213;34;20113;-73
2022/06/07 04:59:56;;;;;;;6.00;2.80;;;;;;;;;;4205497;34;20094;-70
2022/06/07 05:02:23;;;;;;;4.75;2.65;;;;;;;;;;4218052;34;20199;-71
2022/06/07 05:04:49;;;;;;;5.18;2.87;;;;;;;;;;4205348;34;20105;-71
2022/06/07 05:07:15;;;;;;;4.55;2.72;;;;;;;;;;4218221;34;20136;-70
2022/06/07 05:09:41;;;;;;;3.15;2.85;;;;;;;;;;4218349;34;20097;-70
2022/06/07 05:12:08;;;;;;;3.92;2.90;;;;;;;;;;4218407;34;20593;-69
2022/06/07 05:14:35;;;;;;;5.18;3.17;;;;;;;;;;4205374;34;20127;-68
2022/06/07 05:17:01;;;;;;;6.20;2.70;;;;;;;;;;4205557;34;20108;-69
2022/06/07 05:19:33;;;;;;;4.50;2.70;;;;;;;;;;4218340;34;20098;-69
2022/06/07 05:22:00;;;;;;;6.32;2.62;;;;;;;;;;4206077;34;20120;-68
2022/06/07 05:24:26;;;;;;;3.62;2.90;;;;;;;;;;4218067;34;20211;-69
2022/06/07 05:26:58;;;;;;;3.40;3.10;;;;;;;;;;4218413;34;20141;-69
2022/06/07 05:29:30;;;;;;;2.65;2.42;;;;;;;;;;4218275;34;20128;-70
2022/06/07 05:31:56;;;;;;;4.60;2.55;;;;;;;;;;4218297;34;20166;-68
2022/06/07 05:34:22;;;;;;;2.95;2.60;;;;;;;;;;4182467;34;20196;-70
2022/06/07 05:36:48;;;;;;;7.37;2.67;;;;;;;;;;4205064;34;20143;-68
2022/06/07 05:39:26;;;;;;;5.95;3.45;;;;;;;;;;4218087;34;20122;-76
2022/06/07 05:41:53;;;;;;;3.42;2.62;;;;;;;;;;4218114;34;20097;-74
2022/06/07 05:44:19;;;;;;;4.47;2.62;;;;;;;;;;4218116;34;20098;-72
2022/06/07 05:46:45;;;;;;;3.60;2.90;;;;;;;;;;4218241;34;20208;-70
2022/06/07 05:49:12;;;;;;;2.60;2.40;;;;;;;;;;4217984;34;20518;-70
2022/06/07 05:51:39;;;;;;;3.00;2.70;;;;;;;;;;4205329;34;20201;-73
2022/06/07 05:54:05;;;;;;;4.20;3.10;;;;;;;;;;4217949;34;20137;-72
2022/06/07 05:56:32;;;;;;;4.07;2.90;;;;;;;;;;4218125;34;20104;-73
2022/06/07 05:58:58;;;;;;;3.65;2.30;;;;;;;;;;4205204;34;20188;-73
2022/06/07 06:01:25;;;;;;;3.30;2.67;;;;;;;;;;4217693;34;20535;-73
2022/06/07 06:03:52;;;;;;;3.33;2.62;;;;;;;;;;4218141;34;20482;-74
2022/06/07 06:06:18;;;;;;;4.80;3.25;;;;;;;;;;4217825;34;20105;-73
2022/06/07 06:11:28;;;;;;;4.80;3.08;;;;;;;;;;4206830;34;20094;-75
2022/06/07 06:13:55;;;;;;;6.65;3.10;;;;;;;;;;4193560;34;20128;-75
2022/06/07 06:16:22;;;;;;;3.87;3.10;;;;;;;;;;4204804;34;20469;-72
2022/06/07 06:18:51;;;;;;;10.75;3.33;;;;;;;;;;4217635;34;20156;-74
2022/06/07 06:21:18;;;;;;;4.82;2.87;;;;;;;;;;4206736;34;20206;-70
2022/06/07 06:23:44;;;;;;;6.20;3.42;;;;;;;;;;4219914;34;20556;-73
2022/06/07 06:26:11;;;;;;;3.58;2.97;;;;;;;;;;4219680;34;20213;-74
2022/06/07 06:28:38;;;;;;;3.83;2.50;;;;;;;;;;4220043;34;20105;-74
2022/06/07 06:31:05;;;;;;;2.75;2.45;;;;;;;;;;4195243;34;20113;-73
2022/06/07 06:33:42;;;;;;;5.40;2.58;;;;;;;;;;4218282;34;20191;-74
2022/06/07 06:36:10;;;;;;;6.95;2.53;;;;;;;;;;4194475;34;20206;-72
2022/06/07 06:38:36;;;;;;;3.25;2.85;;;;;;;;;;4219359;34;20129;-72
2022/06/07 06:41:12;;;;;;;2.60;2.40;;;;;;;;;;4219690;34;20097;-72
2022/06/07 06:43:38;;;;;;;5.78;2.40;;;;;;;;;;4218987;34;20209;-75
2022/06/07 06:46:09;;;;;;;2.22;2.03;;;;;;;;;;4194295;34;20098;-76
2022/06/07 06:48:35;;;;;;;4.45;2.20;;;;;;;;;;4195116;34;20369;-71
2022/06/07 06:51:04;;;;;;;4.62;2.72;;;;;;;;;;4206312;34;20096;-70
2022/06/07 06:53:33;;;;;;;2.17;1.80;;;;;;;;;;4218148;34;20553;-74
2022/06/07 06:56:00;;;;;;;1.92;1.73;;;;;;;;;;4206832;34;20227;-76
2022/06/07 06:58:26;;;;;;;3.85;1.98;;;;;;;;;;4219066;34;20114;-74
2022/06/07 07:01:01;;;;;;;4.10;2.25;;;;;;;;;;4219444;34;20110;-73
2022/06/07 07:03:27;;;;;;;4.87;2.40;;;;;;;;;;4183156;34;20540;-70
2022/06/07 07:05:55;;;;;;;3.85;1.70;;;;;;;;;;4206232;34;20084;-73
2022/06/07 07:08:24;;;;;;;4.30;1.87;;;;;;;;;;4206489;34;20117;-69
2022/06/07 07:11:12;;;;;;;5.50;1.90;;;;;;;;;;4218855;34;20449;-70
2022/06/07 07:13:39;;;;;;;3.20;1.87;;;;;;;;;;4219260;34;20098;-78
2022/06/07 07:16:14;;;;;;;4.90;2.00;;;;;;;;;;4205982;34;20625;-73
2022/06/07 07:18:40;;;;;;;4.25;1.83;;;;;;;;;;4219076;34;20564;-72
2022/06/07 07:21:14;;;;;;;4.50;1.90;;;;;;;;;;4206081;34;20173;-66
2022/06/07 07:23:40;;;;;;;1.55;1.45;;;;;;;;;;4218743;34;20126;-69
2022/06/07 07:26:08;;;;;;;3.47;1.80;;;;;;;;;;4218960;34;20227;-62
2022/06/07 07:28:35;;;;;;;5.32;1.95;;;;;;;;;;4218798;34;21083;-67
2022/06/07 07:31:03;;;;;;;1.95;1.50;;;;;;;;;;4218814;34;20537;-66
2022/06/07 07:33:29;;;;;;;2.37;1.77;;;;;;;;;;4194501;34;20101;-64
2022/06/07 07:35:56;;;;;;;1.55;1.37;;;;;;;;;;4218758;34;20109;-67
2022/06/07 07:38:24;;;;;;;5.72;1.90;;;;;;;;;;4218946;34;20117;-66
2022/06/07 07:40:51;;;;;;;2.90;1.75;;;;;;;;;;4217433;34;20542;-66
2022/06/07 07:43:18;;;;;;;5.93;2.00;;;;;;;;;;4207630;34;20125;-67
2022/06/07 07:45:44;;;;;;;3.87;2.10;;;;;;;;;;4214722;34;20529;-66
2022/06/07 07:48:11;;;;;;;2.17;1.60;;;;;;;;;;4205617;34;20101;-66
2022/06/07 07:50:38;;;;;;;4.75;2.03;;;;;;;;;;4205644;34;20121;-66
2022/06/07 07:53:05;;;;;;;4.75;2.28;;;;;;;;;;4217302;34;20121;-66
2022/06/07 07:55:31;;;;;;;5.12;2.50;;;;;;;;;;4208382;34;20093;-63
2022/06/07 07:57:57;;;;;;;6.57;2.50;;;;;;;;;;4218307;34;20518;-65
2022/06/07 08:00:24;;;;;;;5.30;2.12;;;;;;;;;;4219125;34;20113;-67
2022/06/07 08:02:50;;;;;;;2.25;1.90;;;;;;;;;;4218866;34;20133;-64
2022/06/07 08:05:16;;;;;;;7.00;3.15;;;;;;;;;;4216958;34;20121;-64
2022/06/07 08:07:42;;;;;;;4.07;2.10;;;;;;;;;;4216041;34;20155;-63
2022/06/07 08:10:08;;;;;;;3.05;2.20;;;;;;;;;;4213953;34;20221;-62
2022/06/07 08:12:34;;;;;;;2.85;2.33;;;;;;;;;;4200558;34;20135;-62
2022/06/07 08:15:00;;;;;;;6.18;2.17;;;;;;;;;;4219776;33;20555;-64
2022/06/07 08:17:27;;;;;;;2.03;1.90;;;;;;;;;;4215808;33;20560;-64
2022/06/07 08:19:53;;;;;;;3.45;2.28;;;;;;;;;;4229841;33;20117;-63
2022/06/07 08:22:22;;;;;;;7.32;2.30;;;;;;;;;;4231014;33;20128;-63
2022/06/07 08:24:48;;;;;;;2.55;2.35;;;;;;;;;;4232766;33;20203;-63
2022/06/07 08:27:14;;;;;;;2.20;2.00;;;;;;;;;;4232602;33;20216;-63
2022/06/07 08:29:41;;;;;;;1.85;1.73;;;;;;;;;;4232701;33;20113;-62
2022/06/07 08:32:07;;;;;;;2.20;1.80;;;;;;;;;;4232635;33;20144;-63
2022/06/07 08:37:37;;;;;;;3.17;1.50;;;;;;;;;;4219585;33;20114;-63
2022/06/07 08:40:33;;;;;;;1.40;1.30;;;;;;;;;;4232566;33;20131;-63
2022/06/07 08:43:01;;;;;;;1.40;1.30;;;;;;;;;;4219057;33;20125;-64
2022/06/07 08:45:39;;;;;;;2.33;1.67;;;;;;;;;;4194129;34;20113;-62
2022/06/07 08:48:13;;;;;;;3.17;1.33;;;;;;;;;;4205634;34;20138;-65
2022/06/07 08:50:45;;;;;;;1.65;1.40;;;;;;;;;;4205568;34;20211;-63
2022/06/07 08:53:54;;;;;;;3.58;1.67;;;;;;;;;;4218453;34;20089;-63
2022/06/07 08:56:24;;;;;;;1.62;1.52;;;;;;;;;;4188256;34;20110;-63
2022/06/07 08:58:54;;;;;;;3.58;1.62;;;;;;;;;;4176933;34;20129;-63
2022/06/07 09:01:47;;;;;;;1.90;1.40;;;;;;;;;;4204802;34;20124;-65
2022/06/07 09:04:21;;;;;;;6.40;1.70;;;;;;;;;;4206104;34;20085;-65
2022/06/07 09:06:51;;;;;;;1.25;1.23;;;;;;;;;;4205839;34;20113;-65
2022/06/07 09:09:19;;;;;;;1.70;1.42;;;;;;;;;;4218264;34;20231;-65
2022/06/07 09:14:39;;;;;;;3.97;1.48;;;;;;;;;;4217931;34;20172;-64
2022/06/07 09:17:11;;;;;;;2.83;1.80;;;;;;;;;;4204390;34;20176;-65
2022/06/07 09:19:38;;;;;;;1.70;1.60;;;;;;;;;;4204589;34;20411;-63
2022/06/07 09:22:15;;;;;;;7.20;2.00;;;;;;;;;;4194282;34;20113;-64
2022/06/07 09:24:53;;;;;;;2.83;1.65;;;;;;;;;;4218172;34;20184;-64
2022/06/07 09:27:23;;;;;;;4.47;1.42;;;;;;;;;;4205232;34;20096;-64
2022/06/07 09:29:56;;;;;;;2.35;1.62;;;;;;;;;;4204954;34;20090;-65
2022/06/07 09:32:24;;;;;;;1.67;1.45;;;;;;;;;;4218124;34;20120;-65
2022/06/07 09:34:59;;;;;;;1.58;1.33;;;;;;;;;;4218045;34;20108;-64
2022/06/07 09:37:45;;;;;;;2.03;1.37;;;;;;;;;;4218321;34;20213;-64
2022/06/07 09:40:26;;;;;;;1.98;1.50;;;;;;;;;;4217836;34;20188;-64
2022/06/07 09:43:12;;;;;;;1.70;1.50;;;;;;;;;;4211176;34;20086;-64
2022/06/07 09:45:52;;;;;;;4.93;2.28;;;;;;;;;;4182374;34;20157;-64
2022/06/07 09:48:28;;;;;;;1.30;1.30;;;;;;;;;;4191246;34;20178;-64
2022/06/07 09:50:58;;;;;;;1.50;1.40;;;;;;;;;;4203521;34;20493;-64
2022/06/07 09:53:25;;;;;;;4.22;1.45;;;;;;;;;;4204460;34;20117;-64
2022/06/07 09:55:54;;;;;;;3.87;1.48;;;;;;;;;;4206175;34;20613;-64
2022/06/07 09:58:32;;;;;;;3.33;1.55;;;;;;;;;;4205878;34;20110;-65
2022/06/07 10:01:02;;;;;;;1.98;1.75;;;;;;;;;;4206081;34;20584;-63
2022/06/07 10:03:39;;;;;;;2.67;2.08;;;;;;;;;;4193358;34;20106;-64
2022/06/07 10:06:50;;;;;;;1.45;1.35;;;;;;;;;;4206031;34;20460;-64
2022/06/07 10:09:34;;;;;;;1.33;1.30;;;;;;;;;;4204044;34;20123;-63
2022/06/07 10:12:15;;;;;;;2.78;1.42;;;;;;;;;;4206575;34;20210;-64
2022/06/07 10:14:55;;;;;;;3.92;1.40;;;;;;;;;;4206320;34;20094;-63
2022/06/07 10:17:40;;;;;;;2.00;1.55;;;;;;;;;;4192909;34;20117;-65
2022/06/07 10:20:11;;;;;;;2.83;1.30;;;;;;;;;;4206158;34;20113;-63
2022/06/07 10:22:46;;;;;;;6.90;1.50;;;;;;;;;;4193052;34;20109;-66
2022/06/07 10:25:15;;;;;;;1.40;1.10;;;;;;;;;;4206063;34;20118;-64
2022/06/07 10:28:18;;;;;;;3.22;1.42;;;;;;;;;;4206055;34;20113;-64
2022/06/07 10:31:02;;;;;;;3.12;1.40;;;;;;;;;;4205554;34;20121;-64
2022/06/07 10:33:36;;;;;;;4.87;1.80;;;;;;;;;;4205715;34;20110;-71
2022/06/07 10:36:15;;;;;;;1.48;1.15;;;;;;;;;;4192821;34;20479;-64
2022/06/07 10:39:20;;;;;;;2.92;1.20;;;;;;;;;;4205718;34;20125;-64
2022/06/07 10:41:51;;;;;;;3.83;2.08;;;;;;;;;;4206229;34;20217;-64
2022/06/07 10:44:40;;;;;;;1.23;1.23;;;;;;;;;;4219788;34;20117;-65
2022/06/07 10:47:31;;;;;;;6.40;1.58;;;;;;;;;;4219664;34;20098;-63
2022/06/07 10:49:58;;;;;;;3.03;1.50;;;;;;;;;;4206742;34;20095;-64
2022/06/07 10:52:45;;;;;;;4.20;1.55;;;;;;;;;;4206484;34;20181;-63
2022/06/07 10:55:29;;;;;;;1.50;1.40;;;;;;;;;;4195322;34;20132;-64
2022/06/07 10:58:21;;;;;;;7.53;1.70;;;;;;;;;;4206695;34;20224;-64
2022/06/07 11:00:52;;;;;;;4.47;2.03;;;;;;;;;;4206492;34;20196;-62
2022/06/07 11:03:28;;;;;;;2.17;1.42;;;;;;;;;;4219681;34;20140;-64
2022/06/07 11:11:39;;;;;;;1.40;1.30;;;;;;;;;;4219350;34;20220;-63
2022/06/07 11:14:29;;;;;;;2.65;1.40;;;;;;;;;;4194749;34;20125;-62
2022/06/07 11:17:10;;;;;;;2.45;1.40;;;;;;;;;;4219209;34;20101;-63
2022/06/07 11:19:36;;;;;;;1.50;1.40;;;;;;;;;;4219568;34;20128;-63
2022/06/07 11:22:05;;;;;;;5.03;1.50;;;;;;;;;;4195186;34;20176;-63
2022/06/07 11:24:34;;;;;;;1.70;1.60;;;;;;;;;;4219327;34;20192;-64
2022/06/07 11:27:10;;;;;;;2.65;1.58;;;;;;;;;;4219144;34;20133;-62
2022/06/07 11:29:36;;;;;;;1.40;1.30;;;;;;;;;;4219208;34;20590;-65
2022/06/07 11:32:03;;;;;;;1.95;1.37;;;;;;;;;;4206296;34;20119;-65
2022/06/07 11:34:31;;;;;;;2.20;1.62;;;;;;;;;;4206332;34;20117;-64
2022/06/07 11:37:02;;;;;;;5.65;1.98;;;;;;;;;;4206122;34;20114;-64
2022/06/07 11:39:38;;;;;;;2.50;1.67;;;;;;;;;;4219092;34;20102;-62
2022/06/07 11:42:06;;;;;;;3.75;1.70;;;;;;;;;;4219225;34;20571;-63
2022/06/07 11:44:39;;;;;;;1.98;1.70;;;;;;;;;;4219119;34;20644;-63
2022/06/07 11:47:09;;;;;;;3.28;1.67;;;;;;;;;;4199242;34;20118;-62
2022/06/07 11:49:57;;;;;;;2.40;1.70;;;;;;;;;;4217888;34;20113;-61
2022/06/07 11:52:29;;;;;;;2.97;1.52;;;;;;;;;;4206655;34;20132;-64
2022/06/07 11:54:58;;;;;;;4.05;1.70;;;;;;;;;;4205598;34;20104;-64
2022/06/07 11:57:56;;;;;;;2.97;1.70;;;;;;;;;;4218129;34;20196;-64
2022/06/07 12:00:22;;;;;;;2.47;1.67;;;;;;;;;;4218423;34;20212;-64
2022/06/07 12:02:57;;;;;;;9.90;2.15;;;;;;;;;;4212912;34;20611;-65
2022/06/07 12:05:41;;;;;;;1.98;1.60;;;;;;;;;;4205029;34;20525;-65
2022/06/07 12:08:24;;;;;;;3.30;1.80;;;;;;;;;;4196461;33;20140;-64
2022/06/07 12:11:42;;;;;;;7.68;1.80;;;;;;;;;;4219918;33;20110;-63
2022/06/07 12:14:27;;;;;;;1.70;1.60;;;;;;;;;;4229660;33;20125;-65
2022/06/07 12:17:01;;;;;;;10.02;1.90;;;;;;;;;;4218523;33;20191;-63
2022/06/07 12:19:31;;;;;;;2.80;2.25;;;;;;;;;;4229286;33;20109;-63
2022/06/07 12:22:05;;;;;;;1.92;1.80;;;;;;;;;;4218410;34;20081;-63
2022/06/07 12:24:46;;;;;;;2.12;1.92;;;;;;;;;;4218854;34;20541;-63
2022/06/07 12:27:23;;;;;;;2.03;1.80;;;;;;;;;;4203748;34;20209;-63
2022/06/07 12:29:50;;;;;;;3.70;2.15;;;;;;;;;;4216943;34;20109;-63
2022/06/07 12:32:21;;;;;;;2.33;2.05;;;;;;;;;;4217842;34;20228;-67
2022/06/07 12:34:47;;;;;;;3.87;1.92;;;;;;;;;;4218212;34;20120;-66
2022/06/07 12:37:20;;;;;;;4.35;2.17;;;;;;;;;;4217740;34;20159;-63
2022/06/07 12:39:52;;;;;;;1.92;1.80;;;;;;;;;;4204992;34;20122;-63
2022/06/07 12:42:19;;;;;;;2.62;2.03;;;;;;;;;;4218458;34;20223;-63
2022/06/07 12:44:56;;;;;;;4.15;2.22;;;;;;;;;;4218581;34;20132;-64
2022/06/07 12:47:32;;;;;;;6.97;2.45;;;;;;;;;;4215778;34;20534;-64
2022/06/07 12:49:59;;;;;;;3.40;2.20;;;;;;;;;;4201526;34;20482;-64
2022/06/07 12:52:27;;;;;;;3.37;2.10;;;;;;;;;;4204966;34;20105;-64
2022/06/07 12:54:56;;;;;;;5.90;2.03;;;;;;;;;;4217291;34;20594;-63
2022/06/07 12:57:37;;;;;;;4.62;2.10;;;;;;;;;;4217237;34;20206;-65
2022/06/07 13:00:20;;;;;;;2.22;1.92;;;;;;;;;;4204815;34;20442;-64
2022/06/07 13:02:53;;;;;;;1.90;1.80;;;;;;;;;;4217743;34;20573;-63
2022/06/07 13:05:32;;;;;;;3.80;2.12;;;;;;;;;;4215649;34;20123;-64
2022/06/07 13:08:00;;;;;;;4.03;2.10;;;;;;;;;;4216174;34;20137;-64
2022/06/07 13:10:36;;;;;;;2.62;2.10;;;;;;;;;;4190143;34;20105;-64
2022/06/07 13:13:05;;;;;;;3.83;2.28;;;;;;;;;;4209073;33;20173;-64
2022/06/07 13:15:35;;;;;;;2.95;2.05;;;;;;;;;;4205147;33;20172;-63
2022/06/07 13:18:15;;;;;;;1.62;1.52;;;;;;;;;;4205198;34;20209;-64
2022/06/07 13:20:46;;;;;;;2.22;2.00;;;;;;;;;;4216531;34;20546;-63
2022/06/07 13:23:18;;;;;;;6.60;2.40;;;;;;;;;;4204350;34;20108;-63
2022/06/07 13:25:45;;;;;;;2.85;1.83;;;;;;;;;;4217456;34;20121;-63
2022/06/07 13:28:10;;;;;;;3.83;1.90;;;;;;;;;;4216949;34;20625;-63
2022/06/07 13:30:40;;;;;;;2.08;1.92;;;;;;;;;;4204769;34;20229;-63
2022/06/07 13:33:07;;;;;;;2.05;1.92;;;;;;;;;;4216790;34;20109;-67
2022/06/07 13:35:50;;;;;;;3.47;2.20;;;;;;;;;;4216855;34;20112;-64
2022/06/07 13:38:49;;;;;;;3.85;1.80;;;;;;;;;;4204141;34;20113;-66
2022/06/07 13:41:18;;;;;;;3.30;1.70;;;;;;;;;;4202536;34;20939;-63
2022/06/07 13:43:56;;;;;;;10.88;2.22;;;;;;;;;;4212390;34;20121;-64
2022/06/07 13:46:52;;;;;;;3.53;2.00;;;;;;;;;;4211419;34;20518;-63
2022/06/07 13:55:46;;;;;;;2.33;2.10;;;;;;;;;;4212504;34;20370;-63
2022/06/07 13:58:13;;;;;;;2.47;1.83;;;;;;;;;;4213314;34;20133;-64
2022/06/07 14:00:40;;;;;;;2.08;1.85;;;;;;;;;;4200236;34;20123;-66
2022/06/07 14:03:17;;;;;;;3.08;2.17;;;;;;;;;;4219804;33;20229;-66
2022/06/07 14:05:43;;;;;;;6.07;5.00;;;;;;;;;;4209464;34;20552;-66
2022/06/07 14:08:13;;;;;;;3.55;2.90;;;;;;;;;;4192698;34;20097;-66
2022/06/07 14:10:39;;;;;;;8.82;5.22;;;;;;;;;;4208725;34;20125;-64
2022/06/07 14:13:05;;;;;;;5.10;2.25;;;;;;;;;;4217132;34;20552;-65
2022/06/07 14:15:32;;;;;;;4.90;3.22;;;;;;;;;;4217049;33;20120;-66
2022/06/07 14:17:58;;;;;;;3.20;1.92;;;;;;;;;;4203051;34;20132;-72
2022/06/07 14:20:24;;;;;;;3.35;2.20;;;;;;;;;;4191650;34;20122;-63
2022/06/07 14:22:53;;;;;;;2.35;2.15;;;;;;;;;;4217016;33;20101;-63
2022/06/07 14:25:24;;;;;;;3.45;2.60;;;;;;;;;;4204022;34;20293;-65
2022/06/07 14:27:51;;;;;;;2.00;1.75;;;;;;;;;;4216361;34;20082;-65
2022/06/07 14:30:17;;;;;;;3.03;1.70;;;;;;;;;;4202993;34;20105;-64
2022/06/07 14:32:46;;;;;;;4.47;2.17;;;;;;;;;;4216150;34;20101;-64
2022/06/07 14:35:21;;;;;;;4.32;2.45;;;;;;;;;;4204047;33;20207;-64
2022/06/07 14:37:47;;;;;;;5.00;2.80;;;;;;;;;;4192439;34;20597;-63
2022/06/07 14:40:16;;;;;;;6.15;2.62;;;;;;;;;;4217232;33;20121;-63
2022/06/07 14:42:43;;;;;;;3.42;1.60;;;;;;;;;;4205486;34;20153;-63
2022/06/07 14:45:12;;;;;;;3.25;1.70;;;;;;;;;;4197676;34;20100;-64
2022/06/07 14:47:39;;;;;;;4.03;1.80;;;;;;;;;;4218802;33;20120;-64
2022/06/07 14:50:06;;;;;;;5.30;1.80;;;;;;;;;;4206032;34;20137;-63
2022/06/07 14:52:32;;;;;;;2.67;2.12;;;;;;;;;;4218400;33;20608;-64
2022/06/07 14:54:58;;;;;;;5.05;3.70;;;;;;;;;;4219637;34;20098;-64
2022/06/07 14:57:29;;;;;;;6.20;4.40;;;;;;;;;;4218921;34;20441;-63
2022/06/07 14:59:56;;;;;;;2.55;1.70;;;;;;;;;;4206132;34;20114;-63
2022/06/07 15:02:33;;;;;;;1.95;1.62;;;;;;;;;;4219038;34;20197;-62
2022/06/07 15:05:06;;;;;;;2.35;1.52;;;;;;;;;;4219151;34;20117;-64
2022/06/07 15:07:37;;;;;;;1.77;1.60;;;;;;;;;;4218494;33;20121;-65
2022/06/07 15:10:03;;;;;;;1.90;1.67;;;;;;;;;;4221099;33;20117;-63
2022/06/07 15:12:29;;;;;;;4.30;1.77;;;;;;;;;;4218297;34;20149;-64
2022/06/07 15:14:56;;;;;;;3.33;2.00;;;;;;;;;;4218424;34;20120;-64
2022/06/07 15:17:35;;;;;;;2.05;1.50;;;;;;;;;;4227115;33;20101;-68
2022/06/07 15:20:01;;;;;;;2.20;1.62;;;;;;;;;;4223996;33;20132;-70
2022/06/07 15:22:27;;;;;;;4.50;3.40;;;;;;;;;;4185240;34;20529;-61
2022/06/07 15:24:53;;;;;;;4.57;2.80;;;;;;;;;;4219086;34;20241;-64
2022/06/07 15:27:21;;;;;;;2.15;1.50;;;;;;;;;;4220235;33;20132;-65
2022/06/07 15:29:52;;;;;;;3.67;2.62;;;;;;;;;;4218737;34;20315;-65
2022/06/07 15:32:29;;;;;;;2.83;1.50;;;;;;;;;;4218494;34;20125;-63
2022/06/07 15:35:11;;;;;;;4.10;1.80;;;;;;;;;;4205532;34;20704;-62
2022/06/07 15:37:38;;;;;;;1.65;1.50;;;;;;;;;;4221529;33;20128;-63
2022/06/07 15:40:07;;;;;;;4.62;1.67;;;;;;;;;;4206247;34;20129;-62
2022/06/07 15:42:46;;;;;;;3.05;2.17;;;;;;;;;;4218871;34;20132;-63
2022/06/07 15:45:15;;;;;;;1.90;1.67;;;;;;;;;;4207489;34;20108;-63
2022/06/07 15:47:41;;;;;;;4.07;1.60;;;;;;;;;;4218734;34;20125;-64
2022/06/07 15:50:14;;;;;;;2.83;1.77;;;;;;;;;;4206148;34;20205;-63
2022/06/07 15:52:40;;;;;;;8.90;2.85;;;;;;;;;;4219012;34;20188;-65
2022/06/07 15:55:07;;;;;;;4.70;1.50;;;;;;;;;;4219402;34;20125;-67
2022/06/07 16:00:37;;;;;;;5.30;1.90;;;;;;;;;;4175297;34;20117;-65